13°C Temp
10°C Dewpoint
82% Humidity
Temperature
16 KM/H
10 MPH
9 KTS
290°
West North
West

Wind Speed
Overcast
Conditions
Pressure 1019.92 (hPa) - 30.12 (in)
Visibility 6.2 (mi) - 10.0 (km)

Current Conditions
EKCH
Location 55(km)
Metar :EKCH 210550Z 29009KT 9999 OVC012 13/10 Q1020 NOSIG
Sat 21st September 07:50 am

Airport
  Metar Aviation API Data Provided by https://www.checkwx.com/ PHP scripts by weather34.com ©2019